Pentwater, MI

3:05 PM EST on February 13, 2016 (GMT -0500)
Mason-Oceana 911 | | Change Station
CLOSE
Current Station
Personal Weather Station
Location: Pentwater, MI
Elevation: 669 ft
Nearby Weather Stations
Active Advisory: Winter Weather Advisory

Elev 669 ft 43.81 °N, 86.38 °W | Updated 11 minutes ago

Overcast
Overcast
13.9 °F
Feels Like 2 °F
N
9.0
Wind Variable Wind from NNW
Gusts 18.0 mph

Today
High -- | Low -- °F
--% Chance of Precip.
Yesterday
High -- | Low -- °F
Precip. -- in
Pressure 30.47 in
Visibility 5.0 miles
Clouds Overcast 2900 ft
Windchill 2 °F
Dew Point 6 °F
Humidity 70%
Rainfall 0.00 in
Snow Depth Not available.
7:47 AM 6:12 PM
Waxing Crescent, 33% visible
METAR KLDM 131955Z AUTO 33007KT 5SM HZ OVC029 M11/M16 A3047 RMK AO2 T11101160
Pressure 30.47 in
Visibility 5.0 miles
Clouds Overcast 2900 ft
Windchill 2 °F
Dew Point 6 °F
Humidity 70%
Rainfall 0.00 in
Snow Depth Not available.
7:47 AM 6:12 PM
Waxing Crescent, 33% visible
METAR KLDM 131955Z AUTO 33007KT 5SM HZ OVC029 M11/M16 A3047 RMK AO2 T11101160

10-Day Weather Forecast

Almanac

Astronomy

Feb. 13, 2016 Rise Set
Actual Time
Civil Twilight
Nautical Twilight
Astronomical Twilight
Moon
Length of Visible Light
Length of Day
Tomorrow will be .
, % of the Moon is Illuminated

Today's Extremes

State Highs State Lows

Community

WunderPhotos

Upload Photos

1,892,653 photos uploaded!

WunderBlog® & News

Nearby

Air Quality

  Air Quality AQ Index Pollutant
Not available.

Snow Depth

Station Depth Elevation

Earthquake Activity

City Distance Mag. Time & Date
Minimum magnitude displayed is 2.5.

Coastal Water Temperatures

Place Temperature

Stations

Nearby Weather Stations

Station Location Temp. Windchill Dew Point Humidity Wind Precip. Elev Updated Type
                   

Watches & Warnings

Winter Weather Advisory
Issued: 11:09 AM EST Feb. 13, 2016 – National Weather Service

... Winter Weather Advisory remains in effect until 4 PM EST this
afternoon...

Hazardous weather...

* additional accumulations 1 to 2 inches.

* Rapid visibility changes.

* Storm total snowfall 4 to 7 inches.

Impacts...

* hazardous travel... but improving this afternoon.

* Accidents and slideoffs due to slippery roads and low
   visibilities.

* Closures and cancellations.

Precautionary/preparedness actions...

* the Michigan Department of Transportation reminds motorists
   to adjust speeds based on the conditions... and to take it
   slow in ice and snow.



Wdm